sensor_id;sensor_type;location;lat;lon;timestamp;pressure;altitude;pressure_sealevel;temperature;humidity
13594;BME280;6449;47.666;9.160;2023-03-23T00:03:33;96606.50;;;9.56;100.00
13594;BME280;6449;47.666;9.160;2023-03-23T00:08:26;96608.78;;;9.61;100.00
13594;BME280;6449;47.666;9.160;2023-03-23T00:13:18;96617.22;;;9.76;100.00
13594;BME280;6449;47.666;9.160;2023-03-23T00:18:12;96613.03;;;9.62;100.00
13594;BME280;6449;47.666;9.160;2023-03-23T00:23:15;96618.41;;;9.60;100.00
13594;BME280;6449;47.666;9.160;2023-03-23T00:28:14;96622.06;;;9.47;100.00
13594;BME280;6449;47.666;9.160;2023-03-23T00:33:07;96614.47;;;9.55;100.00
13594;BME280;6449;47.666;9.160;2023-03-23T00:38:03;96594.38;;;9.66;100.00
13594;BME280;6449;47.666;9.160;2023-03-23T00:42:57;96591.88;;;9.76;100.00
13594;BME280;6449;47.666;9.160;2023-03-23T00:47:50;96582.84;;;9.80;100.00
13594;BME280;6449;47.666;9.160;2023-03-23T00:52:43;96588.53;;;9.85;100.00
13594;BME280;6449;47.666;9.160;2023-03-23T00:57:35;96587.84;;;9.83;100.00
13594;BME280;6449;47.666;9.160;2023-03-23T01:02:29;96579.16;;;9.71;100.00
13594;BME280;6449;47.666;9.160;2023-03-23T01:07:21;96567.72;;;9.84;100.00
13594;BME280;6449;47.666;9.160;2023-03-23T01:12:14;96568.53;;;9.95;100.00
13594;BME280;6449;47.666;9.160;2023-03-23T01:17:07;96557.59;;;10.02;100.00
13594;BME280;6449;47.666;9.160;2023-03-23T01:22:01;96554.13;;;10.01;100.00
13594;BME280;6449;47.666;9.160;2023-03-23T01:26:53;96544.97;;;10.07;100.00
13594;BME280;6449;47.666;9.160;2023-03-23T01:31:45;96533.28;;;10.11;100.00
13594;BME280;6449;47.666;9.160;2023-03-23T01:36:38;96535.66;;;10.14;100.00
13594;BME280;6449;47.666;9.160;2023-03-23T01:41:32;96532.13;;;10.04;100.00
13594;BME280;6449;47.666;9.160;2023-03-23T01:46:26;96538.22;;;9.82;100.00
13594;BME280;6449;47.666;9.160;2023-03-23T01:51:20;96526.16;;;9.90;100.00
13594;BME280;6449;47.666;9.160;2023-03-23T01:56:16;96524.03;;;9.95;100.00
13594;BME280;6449;47.666;9.160;2023-03-23T02:01:14;96530.91;;;10.08;100.00
13594;BME280;6449;47.666;9.160;2023-03-23T02:06:07;96539.34;;;10.11;100.00
13594;BME280;6449;47.666;9.160;2023-03-23T02:11:00;96531.88;;;10.07;100.00
13594;BME280;6449;47.666;9.160;2023-03-23T02:16:03;96531.88;;;10.07;100.00
13594;BME280;6449;47.666;9.160;2023-03-23T02:27:01;96534.41;;;9.97;100.00
13594;BME280;6449;47.666;9.160;2023-03-23T02:32:11;96536.25;;;10.06;100.00
13594;BME280;6449;47.666;9.160;2023-03-23T02:37:13;96529.94;;;10.20;100.00
13594;BME280;6449;47.666;9.160;2023-03-23T02:42:09;96545.06;;;10.28;100.00
13594;BME280;6449;47.666;9.160;2023-03-23T02:47:06;96551.50;;;10.35;100.00
13594;BME280;6449;47.666;9.160;2023-03-23T02:52:05;96565.19;;;10.05;100.00
13594;BME280;6449;47.666;9.160;2023-03-23T02:57:00;96564.75;;;9.88;100.00
13594;BME280;6449;47.666;9.160;2023-03-23T03:02:04;96567.94;;;9.58;100.00
13594;BME280;6449;47.666;9.160;2023-03-23T03:07:28;96576.41;;;9.51;100.00
13594;BME280;6449;47.666;9.160;2023-03-23T03:12:36;96575.09;;;9.56;100.00
13594;BME280;6449;47.666;9.160;2023-03-23T03:17:38;96552.97;;;9.71;100.00
13594;BME280;6449;47.666;9.160;2023-03-23T03:22:38;96555.47;;;9.84;100.00
13594;BME280;6449;47.666;9.160;2023-03-23T03:27:36;96531.91;;;9.84;100.00
13594;BME280;6449;47.666;9.160;2023-03-23T03:32:40;96520.69;;;9.93;100.00
13594;BME280;6449;47.666;9.160;2023-03-23T03:37:35;96513.97;;;10.23;100.00
13594;BME280;6449;47.666;9.160;2023-03-23T03:42:28;96503.81;;;10.41;100.00
13594;BME280;6449;47.666;9.160;2023-03-23T03:47:22;96501.66;;;10.46;100.00
13594;BME280;6449;47.666;9.160;2023-03-23T03:52:14;96501.56;;;10.36;100.00
13594;BME280;6449;47.666;9.160;2023-03-23T03:57:06;96480.69;;;10.46;100.00
13594;BME280;6449;47.666;9.160;2023-03-23T04:01:58;96484.13;;;10.46;100.00
13594;BME280;6449;47.666;9.160;2023-03-23T04:06:52;96484.50;;;10.42;100.00
13594;BME280;6449;47.666;9.160;2023-03-23T04:11:44;96471.69;;;10.39;100.00
13594;BME280;6449;47.666;9.160;2023-03-23T04:16:37;96469.50;;;10.44;100.00
13594;BME280;6449;47.666;9.160;2023-03-23T04:21:29;96465.34;;;10.41;100.00
13594;BME280;6449;47.666;9.160;2023-03-23T04:26:23;96475.03;;;10.30;100.00
13594;BME280;6449;47.666;9.160;2023-03-23T04:31:15;96475.16;;;10.17;100.00
13594;BME280;6449;47.666;9.160;2023-03-23T04:36:07;96472.22;;;10.10;100.00
13594;BME280;6449;47.666;9.160;2023-03-23T04:41:00;96475.28;;;10.15;100.00
13594;BME280;6449;47.666;9.160;2023-03-23T04:45:56;96481.25;;;10.17;100.00
13594;BME280;6449;47.666;9.160;2023-03-23T04:50:49;96484.00;;;10.05;100.00
13594;BME280;6449;47.666;9.160;2023-03-23T04:55:42;96469.63;;;9.99;100.00
13594;BME280;6449;47.666;9.160;2023-03-23T05:00:36;96479.72;;;10.04;100.00
13594;BME280;6449;47.666;9.160;2023-03-23T05:05:29;96493.47;;;9.96;100.00
13594;BME280;6449;47.666;9.160;2023-03-23T05:10:23;96482.34;;;10.04;100.00
13594;BME280;6449;47.666;9.160;2023-03-23T05:15:16;96479.47;;;10.18;100.00
13594;BME280;6449;47.666;9.160;2023-03-23T05:20:12;96478.63;;;10.17;100.00
13594;BME280;6449;47.666;9.160;2023-03-23T05:25:08;96473.25;;;10.19;100.00
13594;BME280;6449;47.666;9.160;2023-03-23T05:30:02;96471.59;;;10.29;100.00
13594;BME280;6449;47.666;9.160;2023-03-23T05:34:55;96485.16;;;10.23;100.00
13594;BME280;6449;47.666;9.160;2023-03-23T05:39:47;96493.16;;;10.10;100.00
13594;BME280;6449;47.666;9.160;2023-03-23T05:44:45;96504.84;;;9.95;100.00
13594;BME280;6449;47.666;9.160;2023-03-23T05:49:37;96505.00;;;9.93;100.00
13594;BME280;6449;47.666;9.160;2023-03-23T05:54:30;96498.94;;;9.93;100.00
13594;BME280;6449;47.666;9.160;2023-03-23T05:59:22;96505.81;;;9.94;100.00
13594;BME280;6449;47.666;9.160;2023-03-23T06:04:16;96506.53;;;9.85;100.00
13594;BME280;6449;47.666;9.160;2023-03-23T06:09:09;96517.38;;;9.91;100.00
13594;BME280;6449;47.666;9.160;2023-03-23T06:14:02;96511.41;;;10.01;100.00
13594;BME280;6449;47.666;9.160;2023-03-23T06:18:54;96499.03;;;10.03;100.00
13594;BME280;6449;47.666;9.160;2023-03-23T06:23:48;96507.09;;;10.11;100.00
13594;BME280;6449;47.666;9.160;2023-03-23T06:28:42;96490.78;;;10.18;100.00
13594;BME280;6449;47.666;9.160;2023-03-23T06:33:36;96486.34;;;10.30;100.00
13594;BME280;6449;47.666;9.160;2023-03-23T06:38:28;96489.25;;;10.48;100.00
13594;BME280;6449;47.666;9.160;2023-03-23T06:43:22;96501.38;;;10.49;100.00
13594;BME280;6449;47.666;9.160;2023-03-23T06:48:15;96501.47;;;10.59;100.00
13594;BME280;6449;47.666;9.160;2023-03-23T06:53:07;96500.41;;;10.61;100.00
13594;BME280;6449;47.666;9.160;2023-03-23T06:57:59;96508.22;;;10.72;100.00
13594;BME280;6449;47.666;9.160;2023-03-23T07:02:53;96510.41;;;10.88;100.00
13594;BME280;6449;47.666;9.160;2023-03-23T07:07:46;96511.00;;;11.01;100.00
13594;BME280;6449;47.666;9.160;2023-03-23T07:12:38;96496.06;;;11.13;100.00
13594;BME280;6449;47.666;9.160;2023-03-23T07:17:30;96488.78;;;11.26;100.00
13594;BME280;6449;47.666;9.160;2023-03-23T07:22:24;96504.06;;;11.42;100.00
13594;BME280;6449;47.666;9.160;2023-03-23T07:27:17;96517.72;;;11.67;100.00
13594;BME280;6449;47.666;9.160;2023-03-23T07:32:11;96521.66;;;11.82;100.00
13594;BME280;6449;47.666;9.160;2023-03-23T07:37:04;96536.28;;;12.25;100.00
13594;BME280;6449;47.666;9.160;2023-03-23T07:41:58;96545.91;;;12.65;100.00
13594;BME280;6449;47.666;9.160;2023-03-23T07:46:51;96542.00;;;12.98;100.00
13594;BME280;6449;47.666;9.160;2023-03-23T07:51:49;96548.09;;;13.18;100.00
13594;BME280;6449;47.666;9.160;2023-03-23T07:56:42;96544.19;;;13.41;100.00
13594;BME280;6449;47.666;9.160;2023-03-23T08:01:40;96558.56;;;13.56;100.00
13594;BME280;6449;47.666;9.160;2023-03-23T08:12:10;96560.09;;;13.59;100.00
13594;BME280;6449;47.666;9.160;2023-03-23T08:17:04;96562.84;;;13.57;100.00
13594;BME280;6449;47.666;9.160;2023-03-23T08:21:56;96561.59;;;13.61;100.00
13594;BME280;6449;47.666;9.160;2023-03-23T08:26:49;96571.03;;;13.54;100.00
13594;BME280;6449;47.666;9.160;2023-03-23T08:31:41;96569.91;;;13.67;100.00
13594;BME280;6449;47.666;9.160;2023-03-23T08:36:37;96573.56;;;13.83;100.00
13594;BME280;6449;47.666;9.160;2023-03-23T08:41:32;96579.03;;;14.09;100.00
13594;BME280;6449;47.666;9.160;2023-03-23T08:46:24;96589.75;;;14.26;100.00
13594;BME280;6449;47.666;9.160;2023-03-23T08:51:17;96587.97;;;14.54;100.00
13594;BME280;6449;47.666;9.160;2023-03-23T08:56:11;96585.88;;;14.75;100.00
13594;BME280;6449;47.666;9.160;2023-03-23T09:01:07;96580.59;;;14.57;100.00
13594;BME280;6449;47.666;9.160;2023-03-23T09:06:02;96585.81;;;14.39;100.00
13594;BME280;6449;47.666;9.160;2023-03-23T09:10:55;96592.59;;;14.14;100.00
13594;BME280;6449;47.666;9.160;2023-03-23T09:15:49;96604.38;;;14.20;100.00
13594;BME280;6449;47.666;9.160;2023-03-23T09:20:42;96604.09;;;14.51;100.00
13594;BME280;6449;47.666;9.160;2023-03-23T09:25:36;96609.72;;;15.01;100.00
13594;BME280;6449;47.666;9.160;2023-03-23T09:30:31;96609.66;;;15.29;100.00
13594;BME280;6449;47.666;9.160;2023-03-23T09:35:25;96603.34;;;15.48;100.00
13594;BME280;6449;47.666;9.160;2023-03-23T09:40:22;96598.84;;;15.84;97.16
13594;BME280;6449;47.666;9.160;2023-03-23T09:45:26;96594.91;;;15.88;98.94
13594;BME280;6449;47.666;9.160;2023-03-23T09:50:28;96594.31;;;15.76;100.00
13594;BME280;6449;47.666;9.160;2023-03-23T09:55:23;96603.53;;;15.54;100.00
13594;BME280;6449;47.666;9.160;2023-03-23T10:00:22;96604.53;;;15.53;99.29
13594;BME280;6449;47.666;9.160;2023-03-23T10:05:38;96617.16;;;15.41;100.00
13594;BME280;6449;47.666;9.160;2023-03-23T10:10:42;96619.28;;;15.38;100.00
13594;BME280;6449;47.666;9.160;2023-03-23T10:15:39;96617.75;;;15.53;100.00
13594;BME280;6449;47.666;9.160;2023-03-23T10:20:43;96625.63;;;15.89;100.00
13594;BME280;6449;47.666;9.160;2023-03-23T10:25:45;96622.06;;;16.40;86.08
13594;BME280;6449;47.666;9.160;2023-03-23T10:30:43;96622.63;;;16.52;83.32
13594;BME280;6449;47.666;9.160;2023-03-23T10:35:43;96625.47;;;16.59;85.39
13594;BME280;6449;47.666;9.160;2023-03-23T10:40:49;96622.66;;;16.60;85.97
13594;BME280;6449;47.666;9.160;2023-03-23T10:45:47;96622.00;;;16.58;82.59
13594;BME280;6449;47.666;9.160;2023-03-23T10:50:48;96635.94;;;16.34;88.05
13594;BME280;6449;47.666;9.160;2023-03-23T10:55:43;96633.53;;;16.15;88.27
13594;BME280;6449;47.666;9.160;2023-03-23T11:00:43;96631.03;;;16.13;90.54
13594;BME280;6449;47.666;9.160;2023-03-23T11:05:44;96636.66;;;16.10;89.20
13594;BME280;6449;47.666;9.160;2023-03-23T11:10:41;96612.56;;;16.21;83.50
13594;BME280;6449;47.666;9.160;2023-03-23T11:15:38;96614.16;;;16.06;89.16
13594;BME280;6449;47.666;9.160;2023-03-23T11:20:38;96621.06;;;16.33;87.36
13594;BME280;6449;47.666;9.160;2023-03-23T11:25:33;96612.47;;;16.31;84.71
13594;BME280;6449;47.666;9.160;2023-03-23T11:30:29;96606.88;;;16.42;87.01
13594;BME280;6449;47.666;9.160;2023-03-23T11:35:26;96607.09;;;16.57;90.93
13594;BME280;6449;47.666;9.160;2023-03-23T11:40:22;96601.28;;;16.62;94.55
13594;BME280;6449;47.666;9.160;2023-03-23T11:45:22;96608.69;;;16.84;89.23
13594;BME280;6449;47.666;9.160;2023-03-23T11:50:23;96606.22;;;16.99;89.00
13594;BME280;6449;47.666;9.160;2023-03-23T11:55:20;96601.28;;;17.12;84.42
13594;BME280;6449;47.666;9.160;2023-03-23T12:00:17;96593.13;;;16.97;84.25
13594;BME280;6449;47.666;9.160;2023-03-23T12:05:39;96595.97;;;17.12;89.24
13594;BME280;6449;47.666;9.160;2023-03-23T12:10:43;96605.03;;;16.85;94.83
13594;BME280;6449;47.666;9.160;2023-03-23T12:15:48;96605.56;;;16.89;96.04
13594;BME280;6449;47.666;9.160;2023-03-23T12:21:06;96593.81;;;16.91;89.85
13594;BME280;6449;47.666;9.160;2023-03-23T12:26:17;96601.06;;;16.73;92.95
13594;BME280;6449;47.666;9.160;2023-03-23T12:31:22;96598.28;;;16.48;92.40
13594;BME280;6449;47.666;9.160;2023-03-23T12:36:46;96586.69;;;16.92;86.45
13594;BME280;6449;47.666;9.160;2023-03-23T12:41:49;96570.00;;;17.16;86.04
13594;BME280;6449;47.666;9.160;2023-03-23T12:47:10;96573.09;;;17.52;84.20
13594;BME280;6449;47.666;9.160;2023-03-23T12:52:15;96573.25;;;17.67;85.39
13594;BME280;6449;47.666;9.160;2023-03-23T12:57:15;96555.88;;;17.56;86.34
13594;BME280;6449;47.666;9.160;2023-03-23T13:02:19;96555.91;;;17.48;84.13
13594;BME280;6449;47.666;9.160;2023-03-23T13:07:20;96553.91;;;17.25;87.77
13594;BME280;6449;47.666;9.160;2023-03-23T13:12:15;96542.00;;;17.13;86.45
13594;BME280;6449;47.666;9.160;2023-03-23T13:17:23;96524.28;;;17.14;82.53
13594;BME280;6449;47.666;9.160;2023-03-23T13:22:26;96537.19;;;17.25;84.75
13594;BME280;6449;47.666;9.160;2023-03-23T13:27:24;96533.72;;;17.24;86.78
13594;BME280;6449;47.666;9.160;2023-03-23T13:32:19;96540.03;;;17.15;90.20
13594;BME280;6449;47.666;9.160;2023-03-23T13:37:23;96538.69;;;16.95;86.94
13594;BME280;6449;47.666;9.160;2023-03-23T13:42:22;96545.94;;;16.76;92.35
13594;BME280;6449;47.666;9.160;2023-03-23T13:47:28;96524.34;;;16.39;90.89
13594;BME280;6449;47.666;9.160;2023-03-23T13:52:49;96533.56;;;16.27;99.43
13594;BME280;6449;47.666;9.160;2023-03-23T13:57:51;96526.59;;;16.17;98.74
13594;BME280;6449;47.666;9.160;2023-03-23T14:02:47;96537.28;;;16.08;100.00
13594;BME280;6449;47.666;9.160;2023-03-23T14:07:55;96545.56;;;16.05;100.00
13594;BME280;6449;47.666;9.160;2023-03-23T14:12:52;96534.38;;;15.77;100.00
13594;BME280;6449;47.666;9.160;2023-03-23T14:17:46;96531.16;;;15.65;100.00
13594;BME280;6449;47.666;9.160;2023-03-23T14:22:39;96522.94;;;15.76;100.00
13594;BME280;6449;47.666;9.160;2023-03-23T14:27:33;96505.78;;;15.80;100.00
13594;BME280;6449;47.666;9.160;2023-03-23T14:32:29;96508.91;;;15.76;100.00
13594;BME280;6449;47.666;9.160;2023-03-23T14:37:23;96511.53;;;15.76;100.00
13594;BME280;6449;47.666;9.160;2023-03-23T14:42:29;96515.69;;;15.78;100.00
13594;BME280;6449;47.666;9.160;2023-03-23T14:47:27;96516.00;;;15.75;98.93
13594;BME280;6449;47.666;9.160;2023-03-23T14:52:25;96509.13;;;15.90;92.74
13594;BME280;6449;47.666;9.160;2023-03-23T14:57:26;96504.84;;;15.89;94.14
13594;BME280;6449;47.666;9.160;2023-03-23T15:02:29;96508.03;;;16.01;97.05
13594;BME280;6449;47.666;9.160;2023-03-23T15:07:31;96513.66;;;16.06;94.87
13594;BME280;6449;47.666;9.160;2023-03-23T15:12:27;96515.66;;;16.04;99.15
13594;BME280;6449;47.666;9.160;2023-03-23T15:17:23;96510.03;;;16.07;98.18
13594;BME280;6449;47.666;9.160;2023-03-23T15:22:22;96512.00;;;16.05;97.20
13594;BME280;6449;47.666;9.160;2023-03-23T15:27:24;96508.56;;;16.13;95.24
13594;BME280;6449;47.666;9.160;2023-03-23T15:32:25;96511.06;;;16.14;97.83
13594;BME280;6449;47.666;9.160;2023-03-23T15:37:25;96497.84;;;16.14;95.59
13594;BME280;6449;47.666;9.160;2023-03-23T15:42:27;96489.78;;;16.32;92.19
13594;BME280;6449;47.666;9.160;2023-03-23T15:47:19;96493.56;;;16.21;93.10
13594;BME280;6449;47.666;9.160;2023-03-23T15:52:14;96478.19;;;16.25;90.08
13594;BME280;6449;47.666;9.160;2023-03-23T15:57:10;96484.13;;;16.27;92.91
13594;BME280;6449;47.666;9.160;2023-03-23T16:02:03;96463.81;;;16.28;90.40
13594;BME280;6449;47.666;9.160;2023-03-23T16:06:57;96461.50;;;16.33;88.79
13594;BME280;6449;47.666;9.160;2023-03-23T16:11:51;96473.25;;;16.30;92.07
13594;BME280;6449;47.666;9.160;2023-03-23T16:16:49;96477.50;;;16.15;95.15
13594;BME280;6449;47.666;9.160;2023-03-23T16:21:44;96482.63;;;16.16;92.24
13594;BME280;6449;47.666;9.160;2023-03-23T16:26:37;96479.97;;;16.16;91.86
13594;BME280;6449;47.666;9.160;2023-03-23T16:31:32;96479.47;;;16.05;92.36
13594;BME280;6449;47.666;9.160;2023-03-23T16:36:26;96480.28;;;16.05;90.94
13594;BME280;6449;47.666;9.160;2023-03-23T16:41:20;96475.94;;;15.96;91.61
13594;BME280;6449;47.666;9.160;2023-03-23T16:46:13;96479.34;;;15.80;96.55
13594;BME280;6449;47.666;9.160;2023-03-23T16:51:07;96481.06;;;15.89;93.52
13594;BME280;6449;47.666;9.160;2023-03-23T16:56:03;96487.25;;;15.72;99.59
13594;BME280;6449;47.666;9.160;2023-03-23T17:00:56;96487.66;;;15.59;100.00
13594;BME280;6449;47.666;9.160;2023-03-23T17:05:51;96495.03;;;15.48;100.00
13594;BME280;6449;47.666;9.160;2023-03-23T17:10:45;96496.28;;;15.35;100.00
13594;BME280;6449;47.666;9.160;2023-03-23T17:15:53;96494.28;;;15.29;100.00
13594;BME280;6449;47.666;9.160;2023-03-23T17:20:51;96497.66;;;15.22;100.00
13594;BME280;6449;47.666;9.160;2023-03-23T17:25:46;96499.13;;;15.16;100.00
13594;BME280;6449;47.666;9.160;2023-03-23T17:30:43;96505.69;;;15.12;100.00
13594;BME280;6449;47.666;9.160;2023-03-23T17:35:37;96508.13;;;15.05;100.00
13594;BME280;6449;47.666;9.160;2023-03-23T17:40:32;96512.88;;;15.02;100.00
13594;BME280;6449;47.666;9.160;2023-03-23T17:45:25;96521.28;;;14.97;100.00
13594;BME280;6449;47.666;9.160;2023-03-23T17:50:20;96525.63;;;14.88;100.00
13594;BME280;6449;47.666;9.160;2023-03-23T17:55:14;96531.53;;;14.82;100.00
13594;BME280;6449;47.666;9.160;2023-03-23T18:00:08;96528.97;;;14.73;100.00
13594;BME280;6449;47.666;9.160;2023-03-23T18:05:04;96535.38;;;14.70;100.00
13594;BME280;6449;47.666;9.160;2023-03-23T18:10:02;96529.03;;;14.63;100.00
13594;BME280;6449;47.666;9.160;2023-03-23T18:15:03;96538.22;;;14.59;100.00
13594;BME280;6449;47.666;9.160;2023-03-23T18:19:57;96541.63;;;14.51;100.00
13594;BME280;6449;47.666;9.160;2023-03-23T18:24:50;96541.50;;;14.43;100.00
13594;BME280;6449;47.666;9.160;2023-03-23T18:29:45;96536.69;;;14.38;100.00
13594;BME280;6449;47.666;9.160;2023-03-23T18:34:39;96540.16;;;14.39;100.00
13594;BME280;6449;47.666;9.160;2023-03-23T18:39:34;96535.31;;;14.34;100.00
13594;BME280;6449;47.666;9.160;2023-03-23T18:44:27;96534.50;;;14.34;100.00
13594;BME280;6449;47.666;9.160;2023-03-23T18:49:22;96534.78;;;14.31;100.00
13594;BME280;6449;47.666;9.160;2023-03-23T18:54:17;96538.41;;;14.30;100.00
13594;BME280;6449;47.666;9.160;2023-03-23T18:59:11;96537.56;;;14.29;100.00
13594;BME280;6449;47.666;9.160;2023-03-23T19:04:04;96544.22;;;14.33;100.00
13594;BME280;6449;47.666;9.160;2023-03-23T19:08:59;96544.72;;;14.37;100.00
13594;BME280;6449;47.666;9.160;2023-03-23T19:13:53;96541.97;;;14.38;100.00
13594;BME280;6449;47.666;9.160;2023-03-23T19:18:53;96526.59;;;14.34;100.00
13594;BME280;6449;47.666;9.160;2023-03-23T19:23:46;96538.94;;;14.33;100.00
13594;BME280;6449;47.666;9.160;2023-03-23T19:28:41;96541.19;;;14.28;100.00
13594;BME280;6449;47.666;9.160;2023-03-23T19:33:55;96539.44;;;14.19;100.00
13594;BME280;6449;47.666;9.160;2023-03-23T19:38:49;96524.59;;;14.18;100.00
13594;BME280;6449;47.666;9.160;2023-03-23T19:43:44;96516.38;;;14.21;100.00
13594;BME280;6449;47.666;9.160;2023-03-23T19:48:37;96517.50;;;14.19;100.00
13594;BME280;6449;47.666;9.160;2023-03-23T19:53:32;96517.78;;;14.15;100.00
13594;BME280;6449;47.666;9.160;2023-03-23T19:58:25;96515.69;;;14.19;100.00
13594;BME280;6449;47.666;9.160;2023-03-23T20:03:21;96513.81;;;14.11;100.00
13594;BME280;6449;47.666;9.160;2023-03-23T20:08:15;96500.59;;;13.94;100.00
13594;BME280;6449;47.666;9.160;2023-03-23T20:13:12;96495.91;;;13.87;100.00
13594;BME280;6449;47.666;9.160;2023-03-23T20:18:05;96491.09;;;13.73;100.00
13594;BME280;6449;47.666;9.160;2023-03-23T20:23:01;96480.97;;;13.78;100.00
13594;BME280;6449;47.666;9.160;2023-03-23T20:27:55;96488.34;;;13.75;100.00
13594;BME280;6449;47.666;9.160;2023-03-23T20:32:48;96483.75;;;13.77;100.00
13594;BME280;6449;47.666;9.160;2023-03-23T20:37:43;96475.72;;;13.69;100.00
13594;BME280;6449;47.666;9.160;2023-03-23T20:42:38;96478.69;;;13.66;100.00
13594;BME280;6449;47.666;9.160;2023-03-23T20:47:35;96478.06;;;13.44;100.00
13594;BME280;6449;47.666;9.160;2023-03-23T20:52:29;96475.88;;;13.40;100.00
13594;BME280;6449;47.666;9.160;2023-03-23T20:57:26;96466.75;;;13.34;100.00
13594;BME280;6449;47.666;9.160;2023-03-23T21:02:24;96456.50;;;13.31;100.00
13594;BME280;6449;47.666;9.160;2023-03-23T21:07:21;96450.16;;;13.24;100.00
13594;BME280;6449;47.666;9.160;2023-03-23T21:12:16;96445.13;;;13.21;100.00
13594;BME280;6449;47.666;9.160;2023-03-23T21:17:10;96443.22;;;13.13;100.00
13594;BME280;6449;47.666;9.160;2023-03-23T21:22:05;96425.88;;;13.20;100.00
13594;BME280;6449;47.666;9.160;2023-03-23T21:27:01;96426.88;;;13.09;100.00
13594;BME280;6449;47.666;9.160;2023-03-23T21:31:55;96423.00;;;13.14;100.00
13594;BME280;6449;47.666;9.160;2023-03-23T21:36:52;96431.19;;;13.10;100.00
13594;BME280;6449;47.666;9.160;2023-03-23T21:41:46;96432.31;;;12.98;100.00
13594;BME280;6449;47.666;9.160;2023-03-23T21:46:41;96414.06;;;12.97;100.00
13594;BME280;6449;47.666;9.160;2023-03-23T21:51:36;96400.75;;;12.98;100.00
13594;BME280;6449;47.666;9.160;2023-03-23T21:56:29;96396.03;;;13.02;100.00
13594;BME280;6449;47.666;9.160;2023-03-23T22:01:24;96396.22;;;12.81;100.00
13594;BME280;6449;47.666;9.160;2023-03-23T22:06:22;96393.22;;;12.56;100.00
13594;BME280;6449;47.666;9.160;2023-03-23T22:11:21;96374.44;;;12.42;100.00
13594;BME280;6449;47.666;9.160;2023-03-23T22:16:17;96364.75;;;12.42;100.00
13594;BME280;6449;47.666;9.160;2023-03-23T22:21:14;96359.50;;;12.42;100.00
13594;BME280;6449;47.666;9.160;2023-03-23T22:26:09;96353.13;;;12.45;100.00
13594;BME280;6449;47.666;9.160;2023-03-23T22:31:06;96348.59;;;12.37;100.00
13594;BME280;6449;47.666;9.160;2023-03-23T22:36:00;96348.19;;;12.32;100.00
13594;BME280;6449;47.666;9.160;2023-03-23T22:40:59;96348.19;;;12.03;100.00
13594;BME280;6449;47.666;9.160;2023-03-23T22:45:53;96345.69;;;11.82;100.00
13594;BME280;6449;47.666;9.160;2023-03-23T22:50:47;96337.28;;;11.88;100.00
13594;BME280;6449;47.666;9.160;2023-03-23T22:55:43;96341.41;;;11.91;100.00
13594;BME280;6449;47.666;9.160;2023-03-23T23:00:39;96342.63;;;11.58;100.00
13594;BME280;6449;47.666;9.160;2023-03-23T23:05:40;96336.25;;;11.60;100.00
13594;BME280;6449;47.666;9.160;2023-03-23T23:10:35;96347.63;;;11.20;100.00
13594;BME280;6449;47.666;9.160;2023-03-23T23:15:28;96357.28;;;11.10;100.00
13594;BME280;6449;47.666;9.160;2023-03-23T23:20:23;96377.25;;;11.01;100.00
13594;BME280;6449;47.666;9.160;2023-03-23T23:25:17;96380.22;;;11.18;100.00
13594;BME280;6449;47.666;9.160;2023-03-23T23:30:12;96331.81;;;11.41;100.00
13594;BME280;6449;47.666;9.160;2023-03-23T23:35:06;96417.53;;;11.62;100.00
13594;BME280;6449;47.666;9.160;2023-03-23T23:40:01;96377.19;;;11.72;100.00
13594;BME280;6449;47.666;9.160;2023-03-23T23:44:57;96357.00;;;11.63;100.00
13594;BME280;6449;47.666;9.160;2023-03-23T23:49:51;96341.75;;;11.47;100.00
13594;BME280;6449;47.666;9.160;2023-03-23T23:54:44;96316.34;;;11.58;100.00
13594;BME280;6449;47.666;9.160;2023-03-23T23:59:40;96323.25;;;11.59;100.00
